Latest Weather Observations for Nambour

IDQ60801

Issued at 10:32 pm EST Friday 20 July 2018 (issued every 10 minutes, with the page automatically refreshed every 10 minutes)

About weather observations | Map of weather stations | Latest weather observations for QLD | Other Formats
Station Details ID: 040988 Name: NAMBOUR DAFF - HILLSIDE Lat: -26.64 Lon: 152.94 Height: 53.24 m
Data from the previous 72 hours. | See also: Recent months at Nambour
Date/Time
EST
Temp
°C
App
Temp
°C
Dew
Point
°C
Rel
Hum
%
Delta-T
°C
Wind Press
QNH
hPa
Press
MSL
hPa
Rain since
9am
mm
Dir  Spd
km/h
Gust
km/h
Spd
kts
Gust
kts
20/10:30pm 18.0 16.5 5.2 43 6.2 SSW 2 6 1 3 1017.6 1017.6 0.0
20/10:00pm 18.8 16.9 6.9 46 6.0 WSW 6 11 3 6 1017.1 1017.1 0.0
20/09:30pm 17.7 18.3 11.9 69 3.2 CALM 0 4 0 2 1016.7 1016.7 0.0
20/09:00pm 18.2 18.1 12.2 68 3.3 W 4 6 2 3 1016.3 1016.3 0.0
20/08:30pm 18.1 18.1 12.3 69 3.2 WNW 4 7 2 4 1015.9 1015.9 0.0
20/08:00pm 17.5 17.9 12.6 73 2.7 NW 2 2 1 1 1015.5 1015.5 0.0
20/07:30pm 16.6 17.3 12.2 75 2.4 CALM 0 2 0 1 1015.4 1015.4 0.0
20/07:00pm 16.7 16.5 11.8 73 2.7 WNW 4 7 2 4 1015.3 1015.3 0.0
20/06:30pm 17.2 17.5 12.3 73 2.7 W 2 4 1 2 1015.2 1015.2 0.0
20/06:00pm 18.7 18.9 12.0 65 3.7 W 2 4 1 2 1014.9 1014.9 0.0
20/05:30pm 19.1 19.0 12.1 64 3.9 NW 4 6 2 3 1014.2 1014.1 0.0
20/05:00pm 20.3 20.3 12.3 60 4.5 NNW 4 9 2 5 1014.1 1014.0 0.0
20/04:30pm 21.4 20.7 12.0 55 5.3 N 7 13 4 7 1014.0 1013.9 0.0
20/04:00pm 21.8 20.7 11.8 53 5.6 NW 9 22 5 12 1014.1 1014.0 0.0
20/03:30pm 22.2 20.9 11.3 50 6.1 NNW 9 19 5 10 1013.9 1013.8 0.0
20/03:00pm 23.9 22.7 11.6 46 6.9 NNW 9 20 5 11 1013.8 1013.7 0.0
20/02:30pm 23.5 21.7 10.9 45 7.0 NNW 11 20 6 11 1013.8 1013.7 0.0
20/02:00pm 23.2 20.2 10.6 45 7.0 NNW 17 28 9 15 1014.0 1013.9 0.0
20/01:30pm 23.3 21.1 10.7 45 7.0 NNW 13 24 7 13 1014.2 1014.1 0.0
20/01:00pm 22.7 20.4 10.5 46 6.7 NNW 13 22 7 12 1014.6 1014.6 0.0
20/12:30pm 22.3 19.3 10.5 47 6.5 NW 17 30 9 16 1015.1 1015.1 0.0
20/12:00pm 22.3 19.0 10.8 48 6.3 NW 19 37 10 20 1015.7 1015.7 0.0
20/11:30am 21.9 19.1 11.3 51 5.9 NNW 17 30 9 16 1016.2 1016.2 0.0
20/11:00am 21.2 17.8 11.2 53 5.5 NNW 20 37 11 20 1017.0 1017.0 0.0
20/10:30am 20.8 18.1 11.7 56 5.1 NNW 17 30 9 16 1017.5 1017.5 0.0
20/10:00am 20.1 16.9 11.3 57 4.8 NNW 19 35 10 19 1017.8 1017.8 0.0
20/09:30am 19.4 16.5 10.9 58 4.6 NNW 17 26 9 14 1018.0 1018.0 0.0
20/09:00am 18.2 15.1 10.3 60 4.2 NNW 17 26 9 14 1018.1 1018.1 0.0
20/08:30am 16.6 14.6 10.2 66 3.4 NNW 11 19 6 10 1018.3 1018.3 0.0
20/08:00am 16.3 14.6 9.9 66 3.4 NNW 9 19 5 10 1018.1 1018.1 0.0
20/07:30am 15.6 13.5 9.9 69 3.0 NNW 11 17 6 9 1017.8 1017.8 0.0
20/07:00am 14.4 13.3 10.8 79 1.9 NW 7 17 4 9 1018.1 1018.1 0.0
20/06:30am 11.6 11.5 9.3 86 1.2 CALM 0 4 0 2 1017.6 1017.6 0.0
20/06:00am 10.6 10.4 9.0 90 0.8 CALM 0 2 0 1 1017.3 1017.3 0.0
20/05:30am 9.4 8.2 8.2 92 0.6 ESE 4 6 2 3 1017.0 1017.0 0.0
20/05:00am 9.7 9.3 8.1 90 0.8 CALM 0 0 0 0 1017.2 1017.2 0.0
20/04:30am 10.0 9.7 8.6 91 0.7 CALM 0 0 0 0 1016.7 1016.7 0.0
20/04:00am 9.1 8.4 7.1 87 0.9 CALM 0 0 0 0 1017.0 1017.0 0.0
20/03:30am 9.7 8.8 7.6 87 1.0 WSW 2 6 1 3 1017.6 1017.6 0.0
20/03:00am 9.5 8.8 7.1 85 1.1 CALM 0 0 0 0 1017.5 1017.5 0.0
20/02:30am 10.6 10.1 7.7 82 1.4 CALM 0 0 0 0 1017.9 1017.9 0.0
20/02:00am 11.6 11.0 7.3 75 2.1 CALM 0 0 0 0 1018.3 1018.3 0.0
20/01:30am 12.8 11.8 8.7 76 2.1 NW 4 6 2 3 1018.7 1018.7 0.0
20/01:00am 11.7 11.3 8.2 79 1.7 CALM 0 0 0 0 1019.1 1019.1 0.0
20/12:30am 12.6 11.7 9.2 80 1.7 NW 4 6 2 3 1019.3 1019.3 0.0
20/12:00am 10.9 10.6 8.8 87 1.0 CALM 0 2 0 1 1019.5 1019.5 0.0
 
Date/Time
EST
Temp
°C
App
Temp
°C
Dew
Point
°C
Rel
Hum
%
Delta-T
°C
Wind Press
QNH
hPa
Press
MSL
hPa
Rain since
9am
mm
Dir  Spd
km/h
Gust
km/h
Spd
kts
Gust
kts
19/11:30pm 10.4 10.0 8.2 86 1.1 CALM 0 0 0 0 1019.4 1019.4 0.0
19/11:00pm 11.1 10.9 9.0 87 1.0 CALM 0 0 0 0 1019.6 1019.6 0.0
19/10:30pm 11.1 10.8 8.8 86 1.1 CALM 0 0 0 0 1019.8 1019.8 0.0
19/10:00pm 11.4 11.1 8.8 84 1.3 CALM 0 0 0 0 1020.0 1020.0 0.0
19/09:30pm 11.8 11.6 9.2 84 1.3 CALM 0 0 0 0 1019.9 1019.9 0.0
19/09:00pm 12.0 11.8 9.0 82 1.5 CALM 0 0 0 0 1019.7 1019.7 0.0
19/08:30pm 12.7 12.6 9.5 81 1.6 CALM 0 4 0 2 1019.8 1019.8 0.0
19/08:00pm 13.5 13.1 9.6 77 2.0 WNW 2 4 1 2 1019.6 1019.6 0.0
19/07:30pm 13.1 12.6 9.4 78 1.9 NW 2 6 1 3 1019.4 1019.4 0.0
19/07:00pm 14.6 14.1 9.2 70 2.8 WNW 2 6 1 3 1019.3 1019.3 0.0
19/06:30pm 15.2 15.2 9.8 70 2.8 CALM 0 2 0 1 1019.1 1019.1 0.0
19/06:00pm 15.3 15.0 8.8 65 3.3 CALM 0 2 0 1 1018.8 1018.8 0.0
19/05:30pm 16.6 16.2 8.3 58 4.2 CALM 0 0 0 0 1018.6 1018.6 0.0
19/05:00pm 18.8 17.2 7.9 49 5.6 NNE 6 11 3 6 1018.4 1018.4 0.0
19/04:30pm 19.9 17.9 7.3 44 6.4 NNE 7 13 4 7 1018.3 1018.3 0.0
19/04:00pm 21.0 18.7 7.6 42 6.9 NNE 9 15 5 8 1018.2 1018.2 0.0
19/03:30pm 22.4 19.7 3.5 29 9.1 NNW 7 15 4 8 1018.1 1018.1 0.0
19/03:00pm 22.7 19.7 0.5 23 10.1 N 6 13 3 7 1018.2 1018.2 0.0
19/02:30pm 22.8 19.7 1.2 24 10.0 NNE 7 13 4 7 1018.5 1018.5 0.0
19/02:00pm 22.6 19.3 0.4 23 10.1 N 7 13 4 7 1018.8 1018.8 0.0
19/01:30pm 22.9 19.3 0.7 23 10.2 N 9 13 5 7 1019.1 1019.1 0.0
19/01:00pm 22.8 19.0 -0.6 21 10.5 NW 9 15 5 8 1019.5 1019.5 0.0
19/12:30pm 22.3 17.8 -3.1 18 10.8 NNW 11 19 6 10 1020.1 1020.1 0.0
19/12:00pm 22.3 18.1 -3.9 17 10.9 N 9 15 5 8 1020.5 1020.5 0.0
19/11:30am 21.9 19.9 4.5 32 8.5 NNE 4 9 2 5 1021.0 1021.0 0.0
19/11:00am 20.5 18.5 6.1 39 7.2 ENE 6 7 3 4 1021.6 1021.6 0.0
19/10:30am 19.5 17.8 5.9 41 6.7 NE 4 6 2 3 1022.0 1022.0 0.0
19/10:00am 18.2 16.5 5.8 44 6.1 ENE 4 6 2 3 1022.2 1022.2 0.0
19/09:30am 17.5 17.0 7.8 53 4.9 CALM 0 2 0 1 1022.4 1022.4 0.0
19/09:00am 14.8 14.0 6.6 58 4.0 CALM 0 2 0 1 1022.3 1022.3 0.0
19/08:30am 13.2 12.5 6.8 65 3.1 CALM 0 0 0 0 1021.9 1021.9 0.0
19/08:00am 10.8 10.1 6.9 77 1.8 CALM 0 0 0 0 1022.0 1022.0 0.0
19/07:30am 8.3 7.3 5.6 83 1.2 CALM 0 0 0 0 1022.0 1022.0 0.0
19/07:00am 6.6 5.5 5.1 90 0.7 CALM 0 0 0 0 1021.9 1021.9 0.0
19/06:30am 6.0 4.7 4.3 89 0.7 CALM 0 0 0 0 1021.7 1021.7 0.0
19/06:00am 5.8 4.5 4.1 89 0.7 CALM 0 0 0 0 1021.4 1021.4 0.0
19/05:30am 6.0 4.6 3.7 85 1.0 CALM 0 0 0 0 1021.2 1021.2 0.0
19/05:00am 6.7 5.5 4.7 87 0.9 CALM 0 0 0 0 1020.9 1020.9 0.0
19/04:30am 7.2 6.1 5.2 87 0.9 CALM 0 0 0 0 1020.9 1020.9 0.0
19/04:00am 6.7 5.4 3.9 82 1.2 CALM 0 0 0 0 1021.0 1021.0 0.0
19/03:30am 6.6 5.2 3.4 80 1.4 CALM 0 0 0 0 1020.9 1020.9 0.0
19/03:00am 6.9 5.5 3.7 80 1.4 CALM 0 0 0 0 1020.9 1020.9 0.0
19/02:30am 7.0 5.7 4.1 82 1.2 CALM 0 0 0 0 1020.9 1020.9 0.0
19/02:00am 7.0 5.5 3.1 76 1.6 CALM 0 0 0 0 1020.9 1020.9 0.0
19/01:30am 7.6 6.3 4.2 79 1.5 CALM 0 0 0 0 1020.7 1020.7 0.0
19/01:00am 7.7 6.4 4.3 79 1.5 CALM 0 0 0 0 1020.9 1020.9 0.0
19/12:30am 8.3 7.1 4.5 77 1.7 CALM 0 0 0 0 1021.0 1021.0 0.0
19/12:00am 8.5 7.2 4.3 75 1.8 CALM 0 0 0 0 1021.0 1021.0 0.0
 
Date/Time
EST
Temp
°C
App
Temp
°C
Dew
Point
°C
Rel
Hum
%
Delta-T
°C
Wind Press
QNH
hPa
Press
MSL
hPa
Rain since
9am
mm
Dir  Spd
km/h
Gust
km/h
Spd
kts
Gust
kts
18/11:30pm 8.2 7.0 4.4 77 1.7 CALM 0 0 0 0 1021.0 1021.0 0.0
18/11:00pm 8.5 7.3 4.7 77 1.7 CALM 0 0 0 0 1021.4 1021.4 0.0
18/10:30pm 9.1 8.0 5.3 77 1.7 CALM 0 0 0 0 1021.2 1021.2 0.0
18/10:00pm 10.1 8.9 4.7 69 2.4 CALM 0 0 0 0 1021.3 1021.3 0.0
18/09:30pm 9.8 8.7 5.0 72 2.2 CALM 0 0 0 0 1021.2 1021.2 0.0
18/09:00pm 10.1 9.2 6.1 76 1.8 CALM 0 0 0 0 1021.0 1021.0 0.0
18/08:30pm 10.3 9.5 6.5 77 1.8 CALM 0 0 0 0 1021.2 1021.2 0.0
18/08:00pm 11.1 10.3 6.5 73 2.2 CALM 0 0 0 0 1021.2 1021.2 0.0
18/07:30pm 11.9 11.1 6.6 70 2.5 CALM 0 0 0 0 1021.0 1021.0 0.0
18/07:00pm 12.5 11.7 6.5 67 2.9 CALM 0 0 0 0 1020.7 1020.7 0.0
18/06:30pm 12.8 12.0 6.6 66 3.0 CALM 0 0 0 0 1020.5 1020.5 0.0
18/06:00pm 14.1 13.2 6.2 59 3.8 CALM 0 0 0 0 1020.2 1020.2 0.0
18/05:30pm 15.3 14.1 6.3 55 4.4 SE 2 4 1 2 1019.9 1019.9 0.0
18/05:00pm 18.4 16.6 5.3 42 6.3 W 4 4 2 2 1019.6 1019.6 0.0
18/04:30pm 21.2 19.1 3.9 32 8.3 ENE 4 7 2 4 1019.5 1019.5 0.0
18/04:00pm 22.6 20.9 1.6 25 9.8 CALM 0 2 0 1 1019.5 1019.5 0.0
18/03:30pm 22.8 19.3 -2.7 18 11.0 SE 6 13 3 7 1019.3 1019.3 0.0
18/03:00pm 23.3 20.0 -0.9 20 10.8 E 6 9 3 5 1019.1 1019.1 0.0
18/02:30pm 23.6 20.3 -1.3 19 11.1 E 6 11 3 6 1019.1 1019.1 0.0
18/02:00pm 23.6 20.3 -1.3 19 11.0 E 6 13 3 7 1019.1 1019.1 0.0
18/01:30pm 23.5 19.9 -2.2 18 11.2 ESE 7 13 4 7 1019.2 1019.2 0.0
18/01:00pm 23.4 20.0 -2.2 18 11.1 E 6 11 3 6 1019.4 1019.4 0.0
18/12:30pm 23.0 20.0 0.8 23 10.2 SE 6 13 3 7 1019.9 1019.9 0.0
18/12:00pm 23.1 20.7 -0.4 21 10.6 N 2 4 1 2 1020.3 1020.3 0.0
18/11:30am 23.4 20.8 1.1 23 10.4 SW 4 7 2 4 1020.7 1020.7 0.0
18/11:00am 22.1 20.1 4.2 31 8.7 ENE 4 7 2 4 1021.0 1021.0 0.0
18/10:30am 21.4 19.5 6.5 38 7.6 ESE 6 13 3 7 1021.4 1021.4 0.0
18/10:00am 20.3 19.4 7.7 44 6.5 ENE 2 4 1 2 1021.5 1021.5 0.0
18/09:30am 18.1 17.2 9.2 56 4.7 ENE 4 6 2 3 1021.6 1021.6 0.0
18/09:00am 16.3 16.6 10.8 70 2.9 CALM 0 0 0 0 1021.4 1021.4 0.0
18/08:30am - - - - - CALM 0 0 0 0 1021.2 1021.2 0.0
18/08:00am - - - - - CALM 0 0 0 0 1021.2 1021.2 0.0
18/07:30am - - - - - CALM 0 2 0 1 1020.9 1020.9 0.0
18/07:00am - - - - - CALM 0 0 0 0 1020.5 1020.5 0.0
18/06:30am - - - - - CALM 0 0 0 0 1020.4 1020.4 0.0
18/06:00am - - - - - CALM 0 4 0 2 1020.3 1020.3 0.0
18/05:30am - - - - - CALM 0 0 0 0 1020.2 1020.2 0.0
18/05:00am - - - - - CALM 0 0 0 0 1020.1 1020.1 0.0
18/04:30am 7.6 6.8 6.4 92 0.5 CALM 0 0 0 0 1020.0 1020.0 0.0
18/04:00am 7.3 6.3 5.8 90 0.7 CALM 0 0 0 0 1019.9 1019.9 0.0
18/03:30am 7.6 6.8 6.4 92 0.5 CALM 0 0 0 0 1019.9 1019.9 0.0
18/03:00am 7.4 6.5 6.0 91 0.6 CALM 0 0 0 0 1019.9 1019.9 0.0
18/02:30am 7.5 6.6 6.0 90 0.7 CALM 0 0 0 0 1019.8 1019.8 0.0
18/02:00am 8.1 7.3 6.7 91 0.6 CALM 0 0 0 0 1019.7 1019.7 0.0
18/01:30am 7.8 6.9 5.9 88 0.9 CALM 0 0 0 0 1019.9 1019.9 0.0
18/01:00am 7.7 6.7 5.8 88 0.9 CALM 0 0 0 0 1019.9 1019.9 0.0
18/12:30am 7.9 6.8 5.2 83 1.2 CALM 0 0 0 0 1020.0 1020.0 0.0
18/12:00am 7.8 6.7 5.1 83 1.2 CALM 0 0 0 0 1020.1 1020.1 0.0
 
Date/Time
EST
Temp
°C
App
Temp
°C
Dew
Point
°C
Rel
Hum
%
Delta-T
°C
Wind Press
QNH
hPa
Press
MSL
hPa
Rain since
9am
mm
Dir  Spd
km/h
Gust
km/h
Spd
kts
Gust
kts
17/11:30pm 8.3 7.2 5.1 80 1.4 CALM 0 0 0 0 1020.1 1020.1 0.0
17/11:00pm 8.2 7.0 4.8 79 1.5 CALM 0 0 0 0 1020.3 1020.3 0.0

Other Formats:

Comma delimited format used in spreadsheet applications
http://www.bom.gov.au/fwo/IDQ60801/IDQ60801.95572.axf

JavaScript Object Notation format (JSON) in row-major order
http://www.bom.gov.au/fwo/IDQ60801/IDQ60801.95572.json